메인 페이지
METAR-TAF:

METAR-TAF

공항 :

Nantucket, 매사추세츠, 미국

위도: 41-15-14N, 경도: 070-03-35W, 고도: 14m

현재 날씨관측

예보는 36분 전, 19:53시(UTC)에 발표되었습니다.
북북서6kt
온도 0°C
습도 51%
기압 1025 hPa
시정: 16.1km
맑음

METAR: KACK 071953Z 34006KT 10SM CLR 00/M09 A3026 RMK AO2 SLP248 T00001089 $

시각: 15:29 (20:29 UTC)

예보

예보는 3 시간 3분 전, 17:26시(UTC)에 발표되었습니다.
예보 대상 시간: 07일 18시부터 08일 18시까지 (UTC)
북서9kt
시정: 10km
맑음
07일 2300시부터 (UTC)
북북서5kt
시정: 10km
맑음
08일 0600시부터 (UTC)
북서7kt
시정: 10km
고도 4000ft 상공 구름 조금
08일 1200시부터 (UTC)
북북서11kt
시정: 10km
고도 4000ft 상공 구름 보통

TAF: KACK 071726Z 0718/0818 32009KT P6SM SKC FM072300 34005KT P6SM SKC FM080600 32007KT P6SM FEW040 FM081200 34011KT P6SM SCT040

4,000개 이상의 공항 관측 자료 및 예보 (METAR 및 TAF 보고).

지도상에서 검색 가능한 기상관측소가 노란 점과 빨간 점으로 표시되어 있습니다.

기상관측소 명을 보려면 표시 위로 마우스를 이동하세요.

날씨 관측과 예보를 보려면 클릭하세요.

지도 변경 : 확대하려면 엑스 표시가 있는 녹색 버튼, 축소하려면 빼기 표시가 있는 녹색 버튼, 다음 페이지의 지도를 보려면 녹색 화살표를 클릭하세요.


METAR-TAF: